Time;durP1;ratioP1;P1;durP2;ratioP2;P2;SDS_P1;SDS_P2;PMS_P1;PMS_P2;Temp;Humidity;BMP_temperature;BMP_pressure;BME280_temperature;BME280_humidity;BME280_pressure;Samples;Min_cycle;Max_cycle;Signal;HPM_P1;HPM_P2
2023/03/26 00:02:16;;;;;;;;;;;;;;;;;;5047139;28;5166;-59
2023/03/26 00:04:41;;;;;;;;;;;;;;;;;;5041845;28;4685;-59
2023/03/26 00:07:08;;;;;;;;;;;;;;;;;;5040636;28;4634;-58
2023/03/26 00:09:33;;;;;;;;;;;;;;;;;;5047015;28;4527;-58
2023/03/26 00:11:59;;;;;;;;;;;;;;;;;;5045979;28;4984;-58
2023/03/26 00:14:25;;;;;;;;;;;;;;;;;;5041248;28;4696;-59
2023/03/26 00:16:52;;;;;;;;;;;;;;;;;;5047384;28;4714;-58
2023/03/26 00:19:17;;;;;;;;;;;;;;;;;;5045770;28;1143;-58
2023/03/26 00:21:43;;;;;;;;;;;;;;;;;;5050558;28;5200;-57
2023/03/26 00:24:09;;;;;;;;;;;;;;;;;;5040461;28;5121;-58
2023/03/26 00:26:36;;;;;;;;;;;;;;;;;;5034877;28;4696;-58
2023/03/26 00:29:03;;;;;;;;;;;;;;;;;;5042498;28;4495;-59
2023/03/26 00:31:28;;;;;;;;;;;;;;;;;;5039391;28;2649;-59
2023/03/26 00:33:54;;;;;;;;;;;;;;;;;;5045022;28;4451;-58
2023/03/26 00:36:19;;;;;;;;;;;;;;;;;;5044509;28;4622;-58
2023/03/26 00:38:45;;;;;;;;;;;;;;;;;;5037610;28;4776;-58
2023/03/26 00:41:21;;;;;;;;;;;;;;;;;;5038429;28;5046;-58
2023/03/26 00:43:47;;;;;;;;;;;;;;;;;;5040221;28;3073;-58
2023/03/26 00:46:12;;;;;;;;;;;;;;;;;;5033509;28;4853;-58
2023/03/26 00:48:38;;;;;;;;;;;;;;;;;;5047131;28;4481;-58
2023/03/26 00:51:03;;;;;;;;;;;;;;;;;;5046786;28;4617;-56
2023/03/26 00:53:29;;;;;;;;;;;;;;;;;;5036449;28;4521;-58
2023/03/26 00:55:59;;;;;;;;;;;;;;;;;;5036164;28;4882;-59
2023/03/26 00:58:25;;;;;;;;;;;;;;;;;;5052113;28;1539;-58
2023/03/26 01:00:51;;;;;;;;;;;;;;;;;;5038960;28;4471;-58
2023/03/26 01:03:18;;;;;;;;;;;;;;;;;;5042619;28;4483;-59
2023/03/26 01:05:56;;;;;;;;;;;;;;;;;;5046155;28;5185;-58
2023/03/26 01:08:31;;;;;;;;;;;;;;;;;;5048821;28;4509;-59
2023/03/26 01:11:04;;;;;;;;;;;;;;;;;;5048373;28;5068;-58
2023/03/26 01:13:34;;;;;;;;;;;;;;;;;;5042058;28;3279;-60
2023/03/26 01:16:00;;;;;;;;;;;;;;;;;;5048434;28;5211;-60
2023/03/26 01:18:26;;;;;;;;;;;;;;;;;;5050057;28;5159;-60
2023/03/26 01:20:57;;;;;;;;;;;;;;;;;;5050413;28;4487;-59
2023/03/26 01:23:23;;;;;;;;;;;;;;;;;;5050289;28;4680;-59
2023/03/26 01:25:51;;;;;;;;;;;;;;;;;;5050536;28;1285;-58
2023/03/26 01:28:17;;;;;;;;;;;;;;;;;;5070595;28;4564;-60
2023/03/26 01:30:44;;;;;;;;;;;;;;;;;;5043783;28;5072;-54
2023/03/26 01:33:36;;;;;;;;;;;;;;;;;;5049758;28;5451;-59
2023/03/26 01:36:10;;;;;;;;;;;;;;;;;;5049204;28;4550;-60
2023/03/26 01:38:47;;;;;;;;;;;;;;;;;;5034208;28;4551;-60
2023/03/26 01:41:15;;;;;;;;;;;;;;;;;;5044717;28;4548;-58
2023/03/26 01:44:01;;;;;;;;;;;;;;;;;;5041767;28;1848;-60
2023/03/26 01:46:26;;;;;;;;;;;;;;;;;;5036187;28;4649;-60
2023/03/26 01:48:51;;;;;;;;;;;;;;;;;;5049297;28;5082;-59
2023/03/26 01:51:27;;;;;;;;;;;;;;;;;;5049151;28;4499;-59
2023/03/26 01:53:53;;;;;;;;;;;;;;;;;;5047241;28;4454;-60
2023/03/26 01:56:34;;;;;;;;;;;;;;;;;;5036568;28;4965;-52
2023/03/26 01:59:16;;;;;;;;;;;;;;;;;;5049538;28;4494;-56
2023/03/26 02:01:44;;;;;;;;;;;;;;;;;;5050035;28;1189;-58
2023/03/26 02:04:25;;;;;;;;;;;;;;;;;;5049058;28;4638;-54
2023/03/26 02:06:57;;;;;;;;;;;;;;;;;;5044517;28;4515;-59
2023/03/26 02:09:23;;;;;;;;;;;;;;;;;;5047281;28;4475;-58
2023/03/26 02:11:49;;;;;;;;;;;;;;;;;;5039235;28;4460;-60
2023/03/26 02:14:14;;;;;;;;;;;;;;;;;;5043932;28;4922;-60
2023/03/26 02:16:39;;;;;;;;;;;;;;;;;;5051229;28;1171;-59
2023/03/26 02:19:08;;;;;;;;;;;;;;;;;;5050598;28;5058;-58
2023/03/26 02:21:34;;;;;;;;;;;;;;;;;;5042541;28;5156;-59
2023/03/26 02:24:01;;;;;;;;;;;;;;;;;;5040241;28;4623;-60
2023/03/26 02:26:27;;;;;;;;;;;;;;;;;;5044227;28;4829;-57
2023/03/26 02:28:53;;;;;;;;;;;;;;;;;;5046433;28;5018;-60
2023/03/26 02:31:18;;;;;;;;;;;;;;;;;;5050681;28;1149;-60
2023/03/26 02:33:43;;;;;;;;;;;;;;;;;;5050268;28;4398;-58
2023/03/26 02:36:11;;;;;;;;;;;;;;;;;;5050184;28;4831;-58
2023/03/26 02:38:36;;;;;;;;;;;;;;;;;;5041884;28;4525;-58
2023/03/26 02:41:01;;;;;;;;;;;;;;;;;;5049492;28;4478;-59
2023/03/26 02:43:27;;;;;;;;;;;;;;;;;;5051009;28;1296;-60
2023/03/26 02:45:52;;;;;;;;;;;;;;;;;;5047574;28;4793;-56
2023/03/26 02:48:17;;;;;;;;;;;;;;;;;;5042272;28;4489;-61
2023/03/26 02:50:43;;;;;;;;;;;;;;;;;;5045870;28;4707;-60
2023/03/26 02:53:08;;;;;;;;;;;;;;;;;;5039601;28;5701;-59
2023/03/26 02:55:34;;;;;;;;;;;;;;;;;;5040544;28;1157;-58
2023/03/26 02:57:59;;;;;;;;;;;;;;;;;;5046638;28;4459;-59
2023/03/26 03:00:24;;;;;;;;;;;;;;;;;;5051064;28;4454;-58
2023/03/26 03:02:51;;;;;;;;;;;;;;;;;;5044250;28;4715;-58
2023/03/26 03:05:16;;;;;;;;;;;;;;;;;;5040880;28;4836;-59
2023/03/26 03:07:42;;;;;;;;;;;;;;;;;;5046729;28;1910;-50
2023/03/26 03:10:08;;;;;;;;;;;;;;;;;;5047687;28;4450;-59
2023/03/26 03:12:34;;;;;;;;;;;;;;;;;;5046232;28;4879;-59
2023/03/26 03:14:59;;;;;;;;;;;;;;;;;;5048738;28;4559;-59
2023/03/26 03:17:24;;;;;;;;;;;;;;;;;;5042672;28;4475;-59
2023/03/26 03:19:50;;;;;;;;;;;;;;;;;;5040411;28;5062;-56
2023/03/26 03:22:15;;;;;;;;;;;;;;;;;;5042326;28;3026;-59
2023/03/26 03:24:42;;;;;;;;;;;;;;;;;;5043204;28;4962;-60
2023/03/26 03:27:07;;;;;;;;;;;;;;;;;;5039453;28;4818;-60
2023/03/26 03:29:33;;;;;;;;;;;;;;;;;;5042630;28;5054;-60
2023/03/26 03:31:59;;;;;;;;;;;;;;;;;;5047322;28;4899;-59
2023/03/26 03:34:24;;;;;;;;;;;;;;;;;;5044386;28;3208;-60
2023/03/26 03:36:49;;;;;;;;;;;;;;;;;;5041899;28;4680;-61
2023/03/26 03:39:15;;;;;;;;;;;;;;;;;;5049261;28;5073;-59
2023/03/26 03:41:40;;;;;;;;;;;;;;;;;;5046129;28;4598;-58
2023/03/26 03:44:05;;;;;;;;;;;;;;;;;;5048876;28;5001;-60
2023/03/26 03:46:30;;;;;;;;;;;;;;;;;;5047942;28;3255;-58
2023/03/26 03:48:56;;;;;;;;;;;;;;;;;;5038551;28;4851;-59
2023/03/26 03:51:21;;;;;;;;;;;;;;;;;;5046284;28;4677;-59
2023/03/26 03:53:46;;;;;;;;;;;;;;;;;;5048457;28;4440;-59
2023/03/26 03:56:13;;;;;;;;;;;;;;;;;;5039436;28;4800;-60
2023/03/26 03:58:39;;;;;;;;;;;;;;;;;;5043546;28;3228;-61
2023/03/26 04:01:05;;;;;;;;;;;;;;;;;;5042195;28;4803;-60
2023/03/26 04:03:30;;;;;;;;;;;;;;;;;;5047997;28;4610;-60
2023/03/26 04:05:55;;;;;;;;;;;;;;;;;;5041612;28;5175;-59
2023/03/26 04:08:21;;;;;;;;;;;;;;;;;;5042366;28;4538;-59
2023/03/26 04:10:46;;;;;;;;;;;;;;;;;;5048745;28;1143;-60
2023/03/26 04:13:12;;;;;;;;;;;;;;;;;;5046305;28;5212;-58
2023/03/26 04:15:37;;;;;;;;;;;;;;;;;;5080452;28;4628;-58
2023/03/26 04:18:02;;;;;;;;;;;;;;;;;;5044060;28;5397;-58
2023/03/26 04:20:28;;;;;;;;;;;;;;;;;;5048112;28;5131;-56
2023/03/26 04:22:53;;;;;;;;;;;;;;;;;;5048398;28;4971;-57
2023/03/26 04:25:18;;;;;;;;;;;;;;;;;;5048806;28;3427;-59
2023/03/26 04:27:45;;;;;;;;;;;;;;;;;;5046460;28;4485;-59
2023/03/26 04:30:11;;;;;;;;;;;;;;;;;;5044808;28;4439;-58
2023/03/26 04:32:39;;;;;;;;;;;;;;;;;;5040111;28;4584;-58
2023/03/26 04:35:05;;;;;;;;;;;;;;;;;;5045881;28;4431;-59
2023/03/26 04:37:33;;;;;;;;;;;;;;;;;;5048051;28;1249;-59
2023/03/26 04:39:59;;;;;;;;;;;;;;;;;;5046700;28;4451;-58
2023/03/26 04:42:24;;;;;;;;;;;;;;;;;;5047818;28;4447;-59
2023/03/26 04:44:49;;;;;;;;;;;;;;;;;;5045202;28;5026;-60
2023/03/26 04:47:18;;;;;;;;;;;;;;;;;;5044707;28;4966;-59
2023/03/26 04:49:44;;;;;;;;;;;;;;;;;;5047536;28;1979;-57
2023/03/26 04:52:10;;;;;;;;;;;;;;;;;;5042028;28;4982;-58
2023/03/26 04:54:35;;;;;;;;;;;;;;;;;;5038576;28;4928;-58
2023/03/26 04:57:05;;;;;;;;;;;;;;;;;;5035774;28;4468;-57
2023/03/26 04:59:33;;;;;;;;;;;;;;;;;;5043485;28;4852;-58
2023/03/26 05:01:59;;;;;;;;;;;;;;;;;;5044991;28;4737;-58
2023/03/26 05:04:25;;;;;;;;;;;;;;;;;;5047191;28;4535;-59
2023/03/26 05:06:51;;;;;;;;;;;;;;;;;;5072780;28;4401;-58
2023/03/26 05:09:16;;;;;;;;;;;;;;;;;;5073131;28;5059;-59
2023/03/26 05:11:41;;;;;;;;;;;;;;;;;;5045038;28;5008;-60
2023/03/26 05:14:07;;;;;;;;;;;;;;;;;;5039831;28;4620;-57
2023/03/26 05:16:33;;;;;;;;;;;;;;;;;;5035785;28;3252;-60
2023/03/26 05:18:58;;;;;;;;;;;;;;;;;;5046341;28;4467;-61
2023/03/26 05:21:23;;;;;;;;;;;;;;;;;;5043960;28;4926;-60
2023/03/26 05:23:48;;;;;;;;;;;;;;;;;;5041733;28;5077;-61
2023/03/26 05:26:14;;;;;;;;;;;;;;;;;;5039096;28;4504;-61
2023/03/26 05:28:39;;;;;;;;;;;;;;;;;;5044336;28;1930;-60
2023/03/26 05:31:05;;;;;;;;;;;;;;;;;;5045225;28;4433;-59
2023/03/26 05:33:31;;;;;;;;;;;;;;;;;;5046485;28;4514;-59
2023/03/26 05:36:03;;;;;;;;;;;;;;;;;;5043428;28;4978;-59
2023/03/26 05:38:28;;;;;;;;;;;;;;;;;;5044899;28;5083;-61
2023/03/26 05:41:00;;;;;;;;;;;;;;;;;;5046096;28;4593;-59
2023/03/26 05:43:26;;;;;;;;;;;;;;;;;;5042771;28;1272;-58
2023/03/26 05:45:51;;;;;;;;;;;;;;;;;;5044899;28;4454;-59
2023/03/26 05:48:17;;;;;;;;;;;;;;;;;;5044042;28;4634;-58
2023/03/26 05:50:42;;;;;;;;;;;;;;;;;;5046762;28;4482;-60
2023/03/26 05:53:08;;;;;;;;;;;;;;;;;;5044383;28;4485;-59
2023/03/26 05:55:33;;;;;;;;;;;;;;;;;;5037391;28;1169;-59
2023/03/26 05:57:59;;;;;;;;;;;;;;;;;;5046870;28;4473;-58
2023/03/26 06:00:25;;;;;;;;;;;;;;;;;;5048182;28;4881;-60
2023/03/26 06:02:50;;;;;;;;;;;;;;;;;;5047966;28;5572;-56
2023/03/26 06:05:16;;;;;;;;;;;;;;;;;;5044581;28;4783;-59
2023/03/26 06:07:41;;;;;;;;;;;;;;;;;;5051309;28;1910;-59
2023/03/26 06:10:07;;;;;;;;;;;;;;;;;;5045056;28;4376;-61
2023/03/26 06:12:32;;;;;;;;;;;;;;;;;;5049950;28;4660;-57
2023/03/26 06:14:57;;;;;;;;;;;;;;;;;;5048238;28;5034;-59
2023/03/26 06:17:23;;;;;;;;;;;;;;;;;;5048484;28;5218;-58
2023/03/26 06:19:48;;;;;;;;;;;;;;;;;;5050667;28;1252;-60
2023/03/26 06:22:13;;;;;;;;;;;;;;;;;;5049990;28;4744;-60
2023/03/26 06:24:39;;;;;;;;;;;;;;;;;;5047801;28;4439;-60
2023/03/26 06:27:04;;;;;;;;;;;;;;;;;;5048141;28;4745;-60
2023/03/26 06:29:29;;;;;;;;;;;;;;;;;;5041100;28;4537;-58
2023/03/26 06:31:54;;;;;;;;;;;;;;;;;;5044046;28;4444;-59
2023/03/26 06:34:20;;;;;;;;;;;;;;;;;;5049768;28;3247;-59
2023/03/26 06:36:47;;;;;;;;;;;;;;;;;;5047558;28;4486;-59
2023/03/26 06:39:12;;;;;;;;;;;;;;;;;;5049947;28;4526;-59
2023/03/26 06:41:38;;;;;;;;;;;;;;;;;;5048791;28;5013;-59
2023/03/26 06:44:03;;;;;;;;;;;;;;;;;;5049451;28;5166;-59
2023/03/26 06:46:28;;;;;;;;;;;;;;;;;;5051343;28;2264;-60
2023/03/26 06:48:54;;;;;;;;;;;;;;;;;;5049296;28;4665;-58
2023/03/26 06:51:19;;;;;;;;;;;;;;;;;;5057167;28;4601;-60
2023/03/26 06:53:44;;;;;;;;;;;;;;;;;;5042530;28;4477;-57
2023/03/26 06:56:10;;;;;;;;;;;;;;;;;;5041627;28;4531;-60
2023/03/26 06:58:35;;;;;;;;;;;;;;;;;;5044031;28;1907;-60
2023/03/26 07:01:00;;;;;;;;;;;;;;;;;;5047639;28;5596;-58
2023/03/26 07:03:25;;;;;;;;;;;;;;;;;;5043232;28;5074;-59
2023/03/26 07:05:51;;;;;;;;;;;;;;;;;;5044326;28;5034;-58
2023/03/26 07:08:16;;;;;;;;;;;;;;;;;;5046980;28;4518;-59
2023/03/26 07:10:41;;;;;;;;;;;;;;;;;;5044703;28;3332;-59
2023/03/26 07:13:06;;;;;;;;;;;;;;;;;;5043010;28;4431;-59
2023/03/26 07:15:32;;;;;;;;;;;;;;;;;;5049369;28;4722;-58
2023/03/26 07:17:57;;;;;;;;;;;;;;;;;;5047672;28;4474;-57
2023/03/26 07:20:22;;;;;;;;;;;;;;;;;;5040260;28;4679;-58
2023/03/26 07:22:48;;;;;;;;;;;;;;;;;;5047879;28;3203;-59
2023/03/26 07:25:13;;;;;;;;;;;;;;;;;;5045264;28;4973;-59
2023/03/26 07:27:52;;;;;;;;;;;;;;;;;;5025536;28;5174;-59
2023/03/26 07:30:23;;;;;;;;;;;;;;;;;;5049506;28;4517;-58
2023/03/26 07:32:55;;;;;;;;;;;;;;;;;;5038827;28;4527;-59
2023/03/26 07:35:30;;;;;;;;;;;;;;;;;;5047454;28;4657;-60
2023/03/26 07:38:01;;;;;;;;;;;;;;;;;;5035710;28;4506;-60
2023/03/26 07:40:45;;;;;;;;;;;;;;;;;;5041832;28;3383;-57
2023/03/26 07:43:10;;;;;;;;;;;;;;;;;;5040936;28;5014;-59
2023/03/26 07:45:38;;;;;;;;;;;;;;;;;;5044517;28;4487;-57
2023/03/26 07:48:08;;;;;;;;;;;;;;;;;;5043961;28;4551;-58
2023/03/26 07:50:33;;;;;;;;;;;;;;;;;;5046972;28;4514;-56
2023/03/26 07:52:58;;;;;;;;;;;;;;;;;;5037453;28;4500;-59
2023/03/26 07:55:24;;;;;;;;;;;;;;;;;;5041297;28;3195;-60
2023/03/26 07:57:49;;;;;;;;;;;;;;;;;;5044761;28;4813;-60
2023/03/26 08:00:35;;;;;;;;;;;;;;;;;;5044513;28;4455;-58
2023/03/26 08:03:03;;;;;;;;;;;;;;;;;;5041469;28;4829;-60
2023/03/26 08:05:36;;;;;;;;;;;;;;;;;;5044753;28;4800;-57
2023/03/26 08:08:12;;;;;;;;;;;;;;;;;;5043649;28;4693;-59
2023/03/26 08:10:41;;;;;;;;;;;;;;;;;;5076472;28;1304;-59
2023/03/26 08:13:07;;;;;;;;;;;;;;;;;;5047635;28;4635;-56
2023/03/26 08:15:52;;;;;;;;;;;;;;;;;;5042961;28;4457;-60
2023/03/26 08:18:24;;;;;;;;;;;;;;;;;;5040483;28;4504;-55
2023/03/26 08:20:52;;;;;;;;;;;;;;;;;;5045541;28;4725;-60
2023/03/26 08:23:28;;;;;;;;;;;;;;;;;;5039787;28;4513;-58
2023/03/26 08:25:58;;;;;;;;;;;;;;;;;;5039712;28;4514;-59
2023/03/26 08:28:26;;;;;;;;;;;;;;;;;;5043597;28;1914;-60
2023/03/26 08:30:53;;;;;;;;;;;;;;;;;;5038245;28;4829;-60
2023/03/26 08:33:19;;;;;;;;;;;;;;;;;;5040955;28;4429;-59
2023/03/26 08:35:44;;;;;;;;;;;;;;;;;;5043904;28;4475;-58
2023/03/26 08:38:11;;;;;;;;;;;;;;;;;;5043369;28;5009;-60
2023/03/26 08:40:39;;;;;;;;;;;;;;;;;;5046258;28;1160;-59
2023/03/26 08:43:20;;;;;;;;;;;;;;;;;;5044213;28;4536;-57
2023/03/26 08:45:50;;;;;;;;;;;;;;;;;;5041660;28;4451;-60
2023/03/26 08:48:39;;;;;;;;;;;;;;;;;;5038061;28;4827;-60
2023/03/26 08:51:06;;;;;;;;;;;;;;;;;;5029421;28;4649;-59
2023/03/26 08:53:34;;;;;;;;;;;;;;;;;;5039182;28;5103;-59
2023/03/26 08:56:18;;;;;;;;;;;;;;;;;;5040354;28;5007;-58
2023/03/26 08:58:46;;;;;;;;;;;;;;;;;;5036945;28;3236;-59
2023/03/26 09:01:21;;;;;;;;;;;;;;;;;;5043360;28;4660;-59
2023/03/26 09:03:46;;;;;;;;;;;;;;;;;;5028576;28;4733;-59
2023/03/26 09:06:14;;;;;;;;;;;;;;;;;;5046769;28;4639;-55
2023/03/26 09:08:58;;;;;;;;;;;;;;;;;;5040277;28;6227;-58
2023/03/26 09:11:26;;;;;;;;;;;;;;;;;;5042927;28;5074;-55
2023/03/26 09:14:10;;;;;;;;;;;;;;;;;;5031673;28;5181;-58
2023/03/26 09:16:45;;;;;;;;;;;;;;;;;;5044320;28;3670;-60
2023/03/26 09:19:10;;;;;;;;;;;;;;;;;;5035108;28;4753;-57
2023/03/26 09:21:35;;;;;;;;;;;;;;;;;;5038473;28;4465;-57
2023/03/26 09:24:03;;;;;;;;;;;;;;;;;;5042641;28;4827;-59
2023/03/26 09:26:35;;;;;;;;;;;;;;;;;;5036757;28;4713;-60
2023/03/26 09:29:09;;;;;;;;;;;;;;;;;;5050026;28;4808;-59
2023/03/26 09:31:46;;;;;;;;;;;;;;;;;;5043656;28;3248;-60
2023/03/26 09:34:34;;;;;;;;;;;;;;;;;;5050246;28;4928;-56
2023/03/26 09:37:18;;;;;;;;;;;;;;;;;;5044661;28;5053;-60
2023/03/26 09:39:44;;;;;;;;;;;;;;;;;;5041445;28;4498;-59
2023/03/26 09:42:16;;;;;;;;;;;;;;;;;;5045154;28;4644;-58
2023/03/26 09:44:45;;;;;;;;;;;;;;;;;;5046052;28;5168;-58
2023/03/26 09:47:22;;;;;;;;;;;;;;;;;;5051123;28;4656;-60
2023/03/26 09:49:53;;;;;;;;;;;;;;;;;;5046324;28;3247;-60
2023/03/26 09:52:37;;;;;;;;;;;;;;;;;;5079328;28;5030;-60
2023/03/26 09:55:28;;;;;;;;;;;;;;;;;;5040208;28;4488;-60
2023/03/26 09:58:00;;;;;;;;;;;;;;;;;;5045374;28;5055;-60
2023/03/26 10:00:31;;;;;;;;;;;;;;;;;;5049214;28;4685;-60
2023/03/26 10:03:03;;;;;;;;;;;;;;;;;;5043715;28;4678;-58
2023/03/26 10:05:33;;;;;;;;;;;;;;;;;;5043129;28;4800;-58
2023/03/26 10:08:01;;;;;;;;;;;;;;;;;;5049124;28;4717;-60
2023/03/26 10:10:45;;;;;;;;;;;;;;;;;;5037964;28;3125;-58
2023/03/26 10:13:22;;;;;;;;;;;;;;;;;;5045450;28;4571;-61
2023/03/26 10:16:03;;;;;;;;;;;;;;;;;;5062858;28;4529;-60
2023/03/26 10:18:41;;;;;;;;;;;;;;;;;;5043512;28;4538;-61
2023/03/26 10:21:18;;;;;;;;;;;;;;;;;;5042941;28;4682;-61
2023/03/26 10:23:44;;;;;;;;;;;;;;;;;;5046119;28;4701;-63
2023/03/26 10:26:21;;;;;;;;;;;;;;;;;;5042443;28;4517;-60
2023/03/26 10:28:46;;;;;;;;;;;;;;;;;;5042382;28;4628;-62
2023/03/26 10:31:18;;;;;;;;;;;;;;;;;;5045227;28;4415;-62
2023/03/26 10:34:05;;;;;;;;;;;;;;;;;;5041942;28;4449;-64
2023/03/26 10:36:33;;;;;;;;;;;;;;;;;;5041894;28;4499;-63
2023/03/26 10:39:01;;;;;;;;;;;;;;;;;;5042311;28;4505;-61
2023/03/26 10:41:36;;;;;;;;;;;;;;;;;;5049264;28;5063;-60
2023/03/26 10:44:16;;;;;;;;;;;;;;;;;;5042415;28;5103;-64
2023/03/26 10:46:56;;;;;;;;;;;;;;;;;;5036812;28;3464;-62
2023/03/26 10:49:47;;;;;;;;;;;;;;;;;;5038130;28;5192;-62
2023/03/26 10:52:15;;;;;;;;;;;;;;;;;;5036789;28;4484;-61
2023/03/26 10:54:56;;;;;;;;;;;;;;;;;;5027193;28;4530;-57
2023/03/26 10:57:22;;;;;;;;;;;;;;;;;;5036772;28;4519;-58
2023/03/26 10:59:47;;;;;;;;;;;;;;;;;;5047368;28;4956;-58
2023/03/26 11:02:15;;;;;;;;;;;;;;;;;;5037691;28;4709;-58
2023/03/26 11:04:48;;;;;;;;;;;;;;;;;;5040245;28;4756;-57
2023/03/26 11:07:15;;;;;;;;;;;;;;;;;;5039365;28;4448;-57
2023/03/26 11:09:40;;;;;;;;;;;;;;;;;;5054146;28;4704;-57
2023/03/26 11:12:05;;;;;;;;;;;;;;;;;;5039970;28;4999;-56
2023/03/26 11:14:38;;;;;;;;;;;;;;;;;;5041850;28;4619;-56
2023/03/26 11:17:09;;;;;;;;;;;;;;;;;;5046686;28;4697;-56
2023/03/26 11:19:37;;;;;;;;;;;;;;;;;;5049024;28;1167;-57
2023/03/26 11:22:03;;;;;;;;;;;;;;;;;;5045283;28;4473;-57
2023/03/26 11:24:41;;;;;;;;;;;;;;;;;;5039033;28;4423;-57
2023/03/26 11:27:10;;;;;;;;;;;;;;;;;;5041282;28;4668;-57
2023/03/26 11:29:48;;;;;;;;;;;;;;;;;;5040494;28;4716;-61
2023/03/26 11:32:14;;;;;;;;;;;;;;;;;;5032877;28;5013;-60
2023/03/26 11:34:41;;;;;;;;;;;;;;;;;;5037409;28;3552;-60
2023/03/26 11:37:18;;;;;;;;;;;;;;;;;;5040632;28;4507;-61
2023/03/26 11:39:46;;;;;;;;;;;;;;;;;;5044135;28;5891;-59
2023/03/26 11:42:12;;;;;;;;;;;;;;;;;;5041176;28;4570;-61
2023/03/26 11:44:49;;;;;;;;;;;;;;;;;;5047753;28;4480;-57
2023/03/26 11:47:14;;;;;;;;;;;;;;;;;;5035384;28;4719;-60
2023/03/26 11:49:40;;;;;;;;;;;;;;;;;;5041687;28;3352;-60
2023/03/26 11:52:06;;;;;;;;;;;;;;;;;;5039640;28;4996;-61
2023/03/26 11:54:32;;;;;;;;;;;;;;;;;;5043273;28;5026;-61
2023/03/26 11:57:00;;;;;;;;;;;;;;;;;;5039860;28;4545;-58
2023/03/26 11:59:26;;;;;;;;;;;;;;;;;;5035042;28;4479;-53
2023/03/26 12:01:55;;;;;;;;;;;;;;;;;;5032904;28;5038;-58
2023/03/26 12:04:27;;;;;;;;;;;;;;;;;;5044452;28;4785;-61
2023/03/26 12:07:16;;;;;;;;;;;;;;;;;;5040986;28;4518;-61
2023/03/26 12:10:00;;;;;;;;;;;;;;;;;;5037475;28;4917;-60
2023/03/26 12:12:28;;;;;;;;;;;;;;;;;;5041411;28;4504;-61
2023/03/26 12:14:54;;;;;;;;;;;;;;;;;;5030665;28;4516;-61
2023/03/26 12:17:25;;;;;;;;;;;;;;;;;;5047716;28;4526;-61
2023/03/26 12:19:50;;;;;;;;;;;;;;;;;;5044505;28;4721;-57
2023/03/26 12:22:28;;;;;;;;;;;;;;;;;;5040239;28;1903;-62
2023/03/26 12:25:14;;;;;;;;;;;;;;;;;;5045476;28;4477;-61
2023/03/26 12:27:46;;;;;;;;;;;;;;;;;;5032076;28;5033;-60
2023/03/26 12:30:19;;;;;;;;;;;;;;;;;;5026423;28;4548;-56
2023/03/26 12:32:45;;;;;;;;;;;;;;;;;;5038363;28;5162;-62
2023/03/26 12:35:17;;;;;;;;;;;;;;;;;;5038876;28;5154;-62
2023/03/26 12:37:43;;;;;;;;;;;;;;;;;;5035608;28;3231;-62
2023/03/26 12:40:20;;;;;;;;;;;;;;;;;;5038126;28;4613;-62
2023/03/26 12:42:50;;;;;;;;;;;;;;;;;;5036404;28;5064;-62
2023/03/26 12:45:15;;;;;;;;;;;;;;;;;;5040097;28;4505;-61
2023/03/26 12:47:41;;;;;;;;;;;;;;;;;;5042077;28;4661;-62
2023/03/26 12:50:08;;;;;;;;;;;;;;;;;;5040893;28;4547;-62
2023/03/26 12:52:51;;;;;;;;;;;;;;;;;;5035857;28;3460;-62
2023/03/26 12:55:16;;;;;;;;;;;;;;;;;;5036948;28;4403;-62
2023/03/26 12:58:05;;;;;;;;;;;;;;;;;;5038836;28;4707;-62
2023/03/26 13:00:33;;;;;;;;;;;;;;;;;;5042432;28;5876;-62
2023/03/26 13:03:02;;;;;;;;;;;;;;;;;;5055133;28;4548;-62
2023/03/26 13:05:42;;;;;;;;;;;;;;;;;;5040084;28;4829;-62
2023/03/26 13:08:11;;;;;;;;;;;;;;;;;;5042090;28;4869;-62
2023/03/26 13:10:49;;;;;;;;;;;;;;;;;;5041430;28;1144;-62
2023/03/26 13:13:20;;;;;;;;;;;;;;;;;;5046434;28;4413;-62
2023/03/26 13:15:51;;;;;;;;;;;;;;;;;;5044462;28;4723;-62
2023/03/26 13:18:20;;;;;;;;;;;;;;;;;;5039951;28;4851;-62
2023/03/26 13:20:50;;;;;;;;;;;;;;;;;;5043757;28;5038;-61
2023/03/26 13:23:34;;;;;;;;;;;;;;;;;;5046926;28;4697;-62
2023/03/26 13:25:59;;;;;;;;;;;;;;;;;;5041656;28;4913;-62
2023/03/26 13:28:25;;;;;;;;;;;;;;;;;;5041901;28;4390;-63
2023/03/26 13:31:02;;;;;;;;;;;;;;;;;;5043495;28;4747;-63
2023/03/26 13:33:28;;;;;;;;;;;;;;;;;;5043868;28;4543;-62
2023/03/26 13:35:59;;;;;;;;;;;;;;;;;;5050133;28;5138;-63
2023/03/26 13:38:43;;;;;;;;;;;;;;;;;;5048564;28;4534;-63
2023/03/26 13:41:13;;;;;;;;;;;;;;;;;;5046048;28;4459;-63
2023/03/26 13:43:47;;;;;;;;;;;;;;;;;;5043975;28;3196;-63
2023/03/26 13:46:28;;;;;;;;;;;;;;;;;;5042264;28;4407;-63
2023/03/26 13:49:12;;;;;;;;;;;;;;;;;;5049428;28;5436;-63
2023/03/26 13:51:37;;;;;;;;;;;;;;;;;;5041043;28;4924;-63
2023/03/26 13:54:18;;;;;;;;;;;;;;;;;;5046684;28;5017;-63
2023/03/26 13:56:47;;;;;;;;;;;;;;;;;;5038121;28;4641;-63
2023/03/26 13:59:15;;;;;;;;;;;;;;;;;;5035963;28;4930;-63
2023/03/26 14:01:42;;;;;;;;;;;;;;;;;;5037728;28;1111;-63
2023/03/26 14:04:30;;;;;;;;;;;;;;;;;;5039254;28;4788;-63
2023/03/26 14:07:02;;;;;;;;;;;;;;;;;;5045859;28;4973;-63
2023/03/26 14:09:30;;;;;;;;;;;;;;;;;;5041674;28;5631;-63
2023/03/26 14:11:56;;;;;;;;;;;;;;;;;;5047236;28;4688;-63
2023/03/26 14:14:37;;;;;;;;;;;;;;;;;;5047867;28;4434;-63
2023/03/26 14:17:04;;;;;;;;;;;;;;;;;;5044258;28;5642;-63
2023/03/26 14:19:39;;;;;;;;;;;;;;;;;;5039171;28;4357;-60
2023/03/26 14:22:27;;;;;;;;;;;;;;;;;;5040706;28;5001;-62
2023/03/26 14:24:59;;;;;;;;;;;;;;;;;;5043736;28;5154;-61
2023/03/26 14:27:32;;;;;;;;;;;;;;;;;;5034380;28;4964;-62
2023/03/26 14:30:21;;;;;;;;;;;;;;;;;;5046097;28;4516;-62
2023/03/26 14:33:01;;;;;;;;;;;;;;;;;;5069268;28;4555;-63
2023/03/26 14:35:32;;;;;;;;;;;;;;;;;;5034681;28;5107;-62
2023/03/26 14:38:12;;;;;;;;;;;;;;;;;;5033109;28;5065;-60
2023/03/26 14:41:13;;;;;;;;;;;;;;;;;;5038123;28;3225;-60
2023/03/26 14:43:51;;;;;;;;;;;;;;;;;;5032448;28;5093;-62
2023/03/26 14:46:22;;;;;;;;;;;;;;;;;;5031799;28;5030;-60
2023/03/26 14:48:48;;;;;;;;;;;;;;;;;;5035952;28;4710;-60
2023/03/26 14:51:31;;;;;;;;;;;;;;;;;;5032389;28;4468;-61
2023/03/26 14:54:16;;;;;;;;;;;;;;;;;;5047987;28;4587;-60
2023/03/26 14:56:47;;;;;;;;;;;;;;;;;;5043388;28;4790;-60
2023/03/26 14:59:19;;;;;;;;;;;;;;;;;;5045406;28;5102;-60
2023/03/26 15:01:50;;;;;;;;;;;;;;;;;;5041113;28;1178;-61
2023/03/26 15:04:16;;;;;;;;;;;;;;;;;;5041136;28;4954;-59
2023/03/26 15:07:00;;;;;;;;;;;;;;;;;;5046369;28;4990;-59
2023/03/26 15:09:38;;;;;;;;;;;;;;;;;;5036354;28;5023;-59
2023/03/26 15:12:03;;;;;;;;;;;;;;;;;;5046202;28;4534;-60
2023/03/26 15:14:40;;;;;;;;;;;;;;;;;;5047643;28;4613;-61
2023/03/26 15:17:26;;;;;;;;;;;;;;;;;;5039734;28;4519;-59
2023/03/26 15:19:51;;;;;;;;;;;;;;;;;;5042856;28;5054;-58
2023/03/26 15:22:40;;;;;;;;;;;;;;;;;;5046838;28;1148;-60
2023/03/26 15:25:18;;;;;;;;;;;;;;;;;;5038159;28;4971;-59
2023/03/26 15:27:53;;;;;;;;;;;;;;;;;;5044815;28;4652;-60
2023/03/26 15:30:26;;;;;;;;;;;;;;;;;;5048728;28;4674;-60
2023/03/26 15:33:03;;;;;;;;;;;;;;;;;;5043495;28;4490;-59
2023/03/26 15:35:29;;;;;;;;;;;;;;;;;;5046464;28;4873;-60
2023/03/26 15:38:04;;;;;;;;;;;;;;;;;;5048404;28;4431;-60
2023/03/26 15:40:29;;;;;;;;;;;;;;;;;;5044219;28;1246;-61
2023/03/26 15:43:10;;;;;;;;;;;;;;;;;;5075898;27;4546;-59
2023/03/26 15:45:36;;;;;;;;;;;;;;;;;;5067813;28;4612;-59
2023/03/26 15:48:11;;;;;;;;;;;;;;;;;;5099852;28;4460;-63
2023/03/26 15:50:55;;;;;;;;;;;;;;;;;;5070116;28;4435;-59
2023/03/26 15:53:35;;;;;;;;;;;;;;;;;;5066052;28;4445;-59
2023/03/26 15:56:18;;;;;;;;;;;;;;;;;;5065023;28;4985;-59
2023/03/26 15:58:59;;;;;;;;;;;;;;;;;;5068889;28;1726;-60
2023/03/26 16:01:26;;;;;;;;;;;;;;;;;;5086117;28;5137;-59
2023/03/26 16:03:54;;;;;;;;;;;;;;;;;;5085391;28;4684;-59
2023/03/26 16:06:26;;;;;;;;;;;;;;;;;;5090817;28;4960;-59
2023/03/26 16:08:59;;;;;;;;;;;;;;;;;;5083104;28;4620;-60
2023/03/26 16:11:44;;;;;;;;;;;;;;;;;;5090997;28;4503;-59
2023/03/26 16:14:11;;;;;;;;;;;;;;;;;;5084311;28;4516;-60
2023/03/26 16:16:52;;;;;;;;;;;;;;;;;;5118339;27;1135;-59
2023/03/26 16:19:18;;;;;;;;;;;;;;;;;;5087767;28;5043;-60
2023/03/26 16:21:51;;;;;;;;;;;;;;;;;;5091401;28;4628;-62
2023/03/26 16:24:19;;;;;;;;;;;;;;;;;;5080553;28;5294;-59
2023/03/26 16:26:50;;;;;;;;;;;;;;;;;;5083883;28;4824;-59
2023/03/26 16:29:21;;;;;;;;;;;;;;;;;;5085820;28;4546;-58
2023/03/26 16:32:04;;;;;;;;;;;;;;;;;;5110277;27;3534;-60
2023/03/26 16:34:48;;;;;;;;;;;;;;;;;;5079851;28;4729;-60
2023/03/26 16:37:35;;;;;;;;;;;;;;;;;;5084349;28;4467;-64
2023/03/26 16:40:16;;;;;;;;;;;;;;;;;;5090067;28;4505;-61
2023/03/26 16:43:00;;;;;;;;;;;;;;;;;;5081496;28;4641;-62
2023/03/26 16:45:37;;;;;;;;;;;;;;;;;;5076151;28;4635;-62
2023/03/26 16:48:09;;;;;;;;;;;;;;;;;;5072236;28;4677;-62
2023/03/26 16:50:34;;;;;;;;;;;;;;;;;;5112930;28;4520;-62
2023/03/26 16:53:22;;;;;;;;;;;;;;;;;;5068748;28;4985;-63
2023/03/26 16:55:58;;;;;;;;;;;;;;;;;;5067845;28;3423;-63
2023/03/26 16:58:35;;;;;;;;;;;;;;;;;;5081456;28;4981;-59
2023/03/26 17:01:09;;;;;;;;;;;;;;;;;;5097277;28;5095;-59
2023/03/26 17:03:38;;;;;;;;;;;;;;;;;;5067484;28;4764;-58
2023/03/26 17:06:23;;;;;;;;;;;;;;;;;;5100014;28;4974;-58
2023/03/26 17:09:04;;;;;;;;;;;;;;;;;;5057103;28;4657;-58
2023/03/26 17:11:37;;;;;;;;;;;;;;;;;;5093915;28;4656;-59
2023/03/26 17:14:02;;;;;;;;;;;;;;;;;;5062014;28;4668;-58
2023/03/26 17:16:48;;;;;;;;;;;;;;;;;;5063638;28;3194;-59
2023/03/26 17:19:28;;;;;;;;;;;;;;;;;;5073363;28;4463;-58
2023/03/26 17:21:55;;;;;;;;;;;;;;;;;;5070233;28;4712;-58
2023/03/26 17:24:26;;;;;;;;;;;;;;;;;;5100553;28;4790;-59
2023/03/26 17:26:51;;;;;;;;;;;;;;;;;;5068278;28;4587;-59